sensor_id;sensor_type;location;lat;lon;timestamp;temperature;humidity
7542;DHT22;3812;50.006;8.230;2022-11-15T00:01:24;7.50;99.90
7542;DHT22;3812;50.006;8.230;2022-11-15T00:04:11;7.60;99.90
7542;DHT22;3812;50.006;8.230;2022-11-15T00:06:57;7.60;99.90
7542;DHT22;3812;50.006;8.230;2022-11-15T00:09:42;7.60;99.90
7542;DHT22;3812;50.006;8.230;2022-11-15T00:12:28;7.60;99.90
7542;DHT22;3812;50.006;8.230;2022-11-15T00:15:13;7.70;99.90
7542;DHT22;3812;50.006;8.230;2022-11-15T00:17:59;7.70;99.90
7542;DHT22;3812;50.006;8.230;2022-11-15T00:20:46;7.70;99.90
7542;DHT22;3812;50.006;8.230;2022-11-15T00:23:33;7.80;99.90
7542;DHT22;3812;50.006;8.230;2022-11-15T00:26:18;7.80;99.90
7542;DHT22;3812;50.006;8.230;2022-11-15T00:29:04;7.90;99.90
7542;DHT22;3812;50.006;8.230;2022-11-15T00:31:49;7.90;99.90
7542;DHT22;3812;50.006;8.230;2022-11-15T00:34:35;7.90;99.90
7542;DHT22;3812;50.006;8.230;2022-11-15T00:37:22;7.90;99.90
7542;DHT22;3812;50.006;8.230;2022-11-15T00:40:09;7.90;99.90
7542;DHT22;3812;50.006;8.230;2022-11-15T00:42:56;7.90;99.90
7542;DHT22;3812;50.006;8.230;2022-11-15T00:45:42;7.90;99.90
7542;DHT22;3812;50.006;8.230;2022-11-15T00:48:28;7.90;99.90
7542;DHT22;3812;50.006;8.230;2022-11-15T00:51:13;8.00;99.90
7542;DHT22;3812;50.006;8.230;2022-11-15T00:54:01;8.00;99.90
7542;DHT22;3812;50.006;8.230;2022-11-15T00:56:46;8.00;99.90
7542;DHT22;3812;50.006;8.230;2022-11-15T00:59:31;8.00;99.90
7542;DHT22;3812;50.006;8.230;2022-11-15T01:02:17;8.00;99.90
7542;DHT22;3812;50.006;8.230;2022-11-15T01:05:03;7.90;99.90
7542;DHT22;3812;50.006;8.230;2022-11-15T01:07:51;7.80;99.90
7542;DHT22;3812;50.006;8.230;2022-11-15T01:10:38;7.80;99.90
7542;DHT22;3812;50.006;8.230;2022-11-15T01:13:23;7.70;99.90
7542;DHT22;3812;50.006;8.230;2022-11-15T01:16:10;7.80;99.90
7542;DHT22;3812;50.006;8.230;2022-11-15T01:18:56;7.90;99.90
7542;DHT22;3812;50.006;8.230;2022-11-15T01:21:41;7.90;99.90
7542;DHT22;3812;50.006;8.230;2022-11-15T01:24:27;8.00;99.90
7542;DHT22;3812;50.006;8.230;2022-11-15T01:27:14;8.10;99.90
7542;DHT22;3812;50.006;8.230;2022-11-15T01:29:59;8.10;99.90
7542;DHT22;3812;50.006;8.230;2022-11-15T01:32:45;8.20;99.90
7542;DHT22;3812;50.006;8.230;2022-11-15T01:35:30;8.30;99.90
7542;DHT22;3812;50.006;8.230;2022-11-15T01:38:16;8.30;99.90
7542;DHT22;3812;50.006;8.230;2022-11-15T01:41:01;8.30;99.90
7542;DHT22;3812;50.006;8.230;2022-11-15T01:43:51;8.30;99.90
7542;DHT22;3812;50.006;8.230;2022-11-15T01:46:38;8.30;99.90
7542;DHT22;3812;50.006;8.230;2022-11-15T01:49:24;8.30;99.90
7542;DHT22;3812;50.006;8.230;2022-11-15T01:52:13;8.30;99.90
7542;DHT22;3812;50.006;8.230;2022-11-15T01:55:04;8.30;99.90
7542;DHT22;3812;50.006;8.230;2022-11-15T01:57:53;8.30;99.90
7542;DHT22;3812;50.006;8.230;2022-11-15T02:00:40;8.30;99.90
7542;DHT22;3812;50.006;8.230;2022-11-15T02:03:33;8.30;99.90
7542;DHT22;3812;50.006;8.230;2022-11-15T02:06:20;8.40;99.90
7542;DHT22;3812;50.006;8.230;2022-11-15T02:09:06;8.30;99.90
7542;DHT22;3812;50.006;8.230;2022-11-15T02:11:53;8.20;99.90
7542;DHT22;3812;50.006;8.230;2022-11-15T02:14:40;8.20;99.90
7542;DHT22;3812;50.006;8.230;2022-11-15T02:17:43;8.10;99.90
7542;DHT22;3812;50.006;8.230;2022-11-15T02:20:41;8.10;99.90
7542;DHT22;3812;50.006;8.230;2022-11-15T02:23:52;8.10;99.90
7542;DHT22;3812;50.006;8.230;2022-11-15T02:27:08;8.10;99.90
7542;DHT22;3812;50.006;8.230;2022-11-15T02:30:19;8.10;99.90
7542;DHT22;3812;50.006;8.230;2022-11-15T02:33:13;8.10;99.90
7542;DHT22;3812;50.006;8.230;2022-11-15T02:36:05;8.20;99.90
7542;DHT22;3812;50.006;8.230;2022-11-15T02:38:57;8.20;99.90
7542;DHT22;3812;50.006;8.230;2022-11-15T02:41:47;8.20;99.90
7542;DHT22;3812;50.006;8.230;2022-11-15T02:44:38;8.10;99.90
7542;DHT22;3812;50.006;8.230;2022-11-15T02:47:27;8.10;99.90
7542;DHT22;3812;50.006;8.230;2022-11-15T02:50:17;8.10;99.90
7542;DHT22;3812;50.006;8.230;2022-11-15T02:53:03;8.00;99.90
7542;DHT22;3812;50.006;8.230;2022-11-15T02:55:51;8.00;99.90
7542;DHT22;3812;50.006;8.230;2022-11-15T02:59:04;7.90;99.90
7542;DHT22;3812;50.006;8.230;2022-11-15T03:02:02;7.80;99.90
7542;DHT22;3812;50.006;8.230;2022-11-15T03:04:55;7.80;99.90
7542;DHT22;3812;50.006;8.230;2022-11-15T03:07:48;7.70;99.90
7542;DHT22;3812;50.006;8.230;2022-11-15T03:10:44;7.80;99.90
7542;DHT22;3812;50.006;8.230;2022-11-15T03:13:35;7.90;99.90
7542;DHT22;3812;50.006;8.230;2022-11-15T03:16:26;8.00;99.90
7542;DHT22;3812;50.006;8.230;2022-11-15T03:19:19;8.00;99.90
7542;DHT22;3812;50.006;8.230;2022-11-15T03:22:13;8.10;99.90
7542;DHT22;3812;50.006;8.230;2022-11-15T03:25:04;8.10;99.90
7542;DHT22;3812;50.006;8.230;2022-11-15T03:27:52;8.10;99.90
7542;DHT22;3812;50.006;8.230;2022-11-15T03:30:40;8.00;99.90
7542;DHT22;3812;50.006;8.230;2022-11-15T03:33:27;8.00;99.90
7542;DHT22;3812;50.006;8.230;2022-11-15T03:36:14;7.90;99.90
7542;DHT22;3812;50.006;8.230;2022-11-15T03:39:04;7.90;99.90
7542;DHT22;3812;50.006;8.230;2022-11-15T03:41:57;7.80;99.90
7542;DHT22;3812;50.006;8.230;2022-11-15T03:44:50;7.80;99.90
7542;DHT22;3812;50.006;8.230;2022-11-15T03:47:40;7.70;99.90
7542;DHT22;3812;50.006;8.230;2022-11-15T03:50:27;7.80;99.90
7542;DHT22;3812;50.006;8.230;2022-11-15T03:53:14;7.80;99.90
7542;DHT22;3812;50.006;8.230;2022-11-15T03:56:00;7.90;1.00
7542;DHT22;3812;50.006;8.230;2022-11-15T03:58:46;8.00;1.00
7542;DHT22;3812;50.006;8.230;2022-11-15T04:01:31;8.00;1.00
7542;DHT22;3812;50.006;8.230;2022-11-15T04:04:17;8.10;1.00
7542;DHT22;3812;50.006;8.230;2022-11-15T04:07:02;8.20;1.00
7542;DHT22;3812;50.006;8.230;2022-11-15T04:09:48;8.20;1.00
7542;DHT22;3812;50.006;8.230;2022-11-15T04:12:51;8.30;1.00
7542;DHT22;3812;50.006;8.230;2022-11-15T04:15:36;8.40;1.00
7542;DHT22;3812;50.006;8.230;2022-11-15T04:18:22;8.50;1.00
7542;DHT22;3812;50.006;8.230;2022-11-15T04:21:08;8.50;1.00
7542;DHT22;3812;50.006;8.230;2022-11-15T04:24:12;8.50;1.00
7542;DHT22;3812;50.006;8.230;2022-11-15T04:26:57;8.50;1.00
7542;DHT22;3812;50.006;8.230;2022-11-15T04:29:44;8.60;1.00
7542;DHT22;3812;50.006;8.230;2022-11-15T04:32:30;8.60;1.00
7542;DHT22;3812;50.006;8.230;2022-11-15T04:35:16;8.70;1.00
7542;DHT22;3812;50.006;8.230;2022-11-15T04:38:02;8.70;1.00
7542;DHT22;3812;50.006;8.230;2022-11-15T04:40:48;8.70;1.00
7542;DHT22;3812;50.006;8.230;2022-11-15T04:43:34;8.70;99.90
7542;DHT22;3812;50.006;8.230;2022-11-15T04:46:20;8.70;99.90
7542;DHT22;3812;50.006;8.230;2022-11-15T04:49:06;8.70;99.90
7542;DHT22;3812;50.006;8.230;2022-11-15T04:51:52;8.80;99.90
7542;DHT22;3812;50.006;8.230;2022-11-15T04:54:37;8.80;99.90
7542;DHT22;3812;50.006;8.230;2022-11-15T04:57:22;8.80;99.90
7542;DHT22;3812;50.006;8.230;2022-11-15T05:00:10;8.80;99.90
7542;DHT22;3812;50.006;8.230;2022-11-15T05:02:57;8.80;99.90
7542;DHT22;3812;50.006;8.230;2022-11-15T05:06:01;8.90;99.90
7542;DHT22;3812;50.006;8.230;2022-11-15T05:08:46;8.80;99.90
7542;DHT22;3812;50.006;8.230;2022-11-15T05:11:32;8.80;99.90
7542;DHT22;3812;50.006;8.230;2022-11-15T05:14:18;8.80;99.90
7542;DHT22;3812;50.006;8.230;2022-11-15T05:17:03;8.80;99.90
7542;DHT22;3812;50.006;8.230;2022-11-15T05:19:50;8.70;99.90
7542;DHT22;3812;50.006;8.230;2022-11-15T05:22:36;8.80;99.90
7542;DHT22;3812;50.006;8.230;2022-11-15T05:25:22;8.80;99.90
7542;DHT22;3812;50.006;8.230;2022-11-15T05:28:08;8.70;99.90
7542;DHT22;3812;50.006;8.230;2022-11-15T05:30:53;8.70;99.90
7542;DHT22;3812;50.006;8.230;2022-11-15T05:33:39;8.80;99.90
7542;DHT22;3812;50.006;8.230;2022-11-15T05:36:34;8.80;99.90
7542;DHT22;3812;50.006;8.230;2022-11-15T05:39:20;8.90;99.90
7542;DHT22;3812;50.006;8.230;2022-11-15T05:42:09;8.90;99.90
7542;DHT22;3812;50.006;8.230;2022-11-15T05:44:55;8.90;99.90
7542;DHT22;3812;50.006;8.230;2022-11-15T05:47:42;9.00;99.90
7542;DHT22;3812;50.006;8.230;2022-11-15T05:50:28;9.10;99.90
7542;DHT22;3812;50.006;8.230;2022-11-15T05:53:17;9.10;99.90
7542;DHT22;3812;50.006;8.230;2022-11-15T05:56:05;9.00;99.90
7542;DHT22;3812;50.006;8.230;2022-11-15T05:58:52;9.10;99.90
7542;DHT22;3812;50.006;8.230;2022-11-15T06:01:39;9.20;99.90
7542;DHT22;3812;50.006;8.230;2022-11-15T06:04:25;9.30;99.90
7542;DHT22;3812;50.006;8.230;2022-11-15T06:07:11;9.20;99.90
7542;DHT22;3812;50.006;8.230;2022-11-15T06:09:57;9.30;99.90
7542;DHT22;3812;50.006;8.230;2022-11-15T06:12:43;9.30;99.90
7542;DHT22;3812;50.006;8.230;2022-11-15T06:15:28;9.30;99.90
7542;DHT22;3812;50.006;8.230;2022-11-15T06:18:14;9.30;99.90
7542;DHT22;3812;50.006;8.230;2022-11-15T06:21:00;9.30;99.90
7542;DHT22;3812;50.006;8.230;2022-11-15T06:23:46;9.30;99.90
7542;DHT22;3812;50.006;8.230;2022-11-15T06:26:33;9.30;99.90
7542;DHT22;3812;50.006;8.230;2022-11-15T06:29:18;9.30;99.90
7542;DHT22;3812;50.006;8.230;2022-11-15T06:32:04;9.30;99.90
7542;DHT22;3812;50.006;8.230;2022-11-15T06:34:50;9.30;99.90
7542;DHT22;3812;50.006;8.230;2022-11-15T06:37:35;9.30;99.90
7542;DHT22;3812;50.006;8.230;2022-11-15T06:40:21;9.20;99.90
7542;DHT22;3812;50.006;8.230;2022-11-15T06:43:08;9.30;99.90
7542;DHT22;3812;50.006;8.230;2022-11-15T06:45:54;9.30;99.90
7542;DHT22;3812;50.006;8.230;2022-11-15T06:48:39;9.40;99.90
7542;DHT22;3812;50.006;8.230;2022-11-15T06:51:25;9.40;99.90
7542;DHT22;3812;50.006;8.230;2022-11-15T06:54:11;9.50;99.90
7542;DHT22;3812;50.006;8.230;2022-11-15T06:56:56;9.50;99.90
7542;DHT22;3812;50.006;8.230;2022-11-15T06:59:43;9.50;99.90
7542;DHT22;3812;50.006;8.230;2022-11-15T07:02:29;9.50;99.90
7542;DHT22;3812;50.006;8.230;2022-11-15T07:05:16;9.60;99.90
7542;DHT22;3812;50.006;8.230;2022-11-15T07:08:02;9.60;99.90
7542;DHT22;3812;50.006;8.230;2022-11-15T07:10:48;9.70;99.90
7542;DHT22;3812;50.006;8.230;2022-11-15T07:13:35;9.80;99.90
7542;DHT22;3812;50.006;8.230;2022-11-15T07:16:22;9.80;99.90
7542;DHT22;3812;50.006;8.230;2022-11-15T07:19:08;9.80;99.90
7542;DHT22;3812;50.006;8.230;2022-11-15T07:21:54;9.80;99.90
7542;DHT22;3812;50.006;8.230;2022-11-15T07:24:39;9.80;99.90
7542;DHT22;3812;50.006;8.230;2022-11-15T07:27:25;9.90;99.90
7542;DHT22;3812;50.006;8.230;2022-11-15T07:30:11;9.90;99.90
7542;DHT22;3812;50.006;8.230;2022-11-15T07:32:59;9.90;99.90
7542;DHT22;3812;50.006;8.230;2022-11-15T07:35:45;9.90;99.90
7542;DHT22;3812;50.006;8.230;2022-11-15T07:38:34;10.00;99.90
7542;DHT22;3812;50.006;8.230;2022-11-15T07:41:20;10.00;99.90
7542;DHT22;3812;50.006;8.230;2022-11-15T07:44:05;10.10;99.90
7542;DHT22;3812;50.006;8.230;2022-11-15T07:46:51;10.20;99.90
7542;DHT22;3812;50.006;8.230;2022-11-15T07:49:38;10.30;99.90
7542;DHT22;3812;50.006;8.230;2022-11-15T07:52:23;10.40;99.90
7542;DHT22;3812;50.006;8.230;2022-11-15T07:55:09;10.50;99.90
7542;DHT22;3812;50.006;8.230;2022-11-15T07:58:00;10.60;99.90
7542;DHT22;3812;50.006;8.230;2022-11-15T08:00:46;10.60;99.90
7542;DHT22;3812;50.006;8.230;2022-11-15T08:03:32;10.50;99.90
7542;DHT22;3812;50.006;8.230;2022-11-15T08:06:19;10.50;99.90
7542;DHT22;3812;50.006;8.230;2022-11-15T08:09:04;10.60;99.90
7542;DHT22;3812;50.006;8.230;2022-11-15T08:11:49;10.70;99.90
7542;DHT22;3812;50.006;8.230;2022-11-15T08:14:35;10.70;99.90
7542;DHT22;3812;50.006;8.230;2022-11-15T08:17:21;10.70;99.90
7542;DHT22;3812;50.006;8.230;2022-11-15T08:20:08;10.90;99.90
7542;DHT22;3812;50.006;8.230;2022-11-15T08:22:55;10.90;99.90
7542;DHT22;3812;50.006;8.230;2022-11-15T08:25:41;11.00;99.90
7542;DHT22;3812;50.006;8.230;2022-11-15T08:28:26;11.00;99.90
7542;DHT22;3812;50.006;8.230;2022-11-15T08:31:14;11.20;99.90
7542;DHT22;3812;50.006;8.230;2022-11-15T08:34:01;11.30;99.90
7542;DHT22;3812;50.006;8.230;2022-11-15T08:36:46;11.40;99.90
7542;DHT22;3812;50.006;8.230;2022-11-15T08:39:33;11.50;99.90
7542;DHT22;3812;50.006;8.230;2022-11-15T08:42:18;11.60;99.90
7542;DHT22;3812;50.006;8.230;2022-11-15T08:45:04;11.70;99.90
7542;DHT22;3812;50.006;8.230;2022-11-15T08:47:50;11.80;99.90
7542;DHT22;3812;50.006;8.230;2022-11-15T08:50:36;11.80;99.90
7542;DHT22;3812;50.006;8.230;2022-11-15T08:53:22;11.90;99.90
7542;DHT22;3812;50.006;8.230;2022-11-15T08:56:10;12.00;99.90
7542;DHT22;3812;50.006;8.230;2022-11-15T08:58:56;12.00;99.90
7542;DHT22;3812;50.006;8.230;2022-11-15T09:01:41;12.10;99.90
7542;DHT22;3812;50.006;8.230;2022-11-15T09:04:27;12.20;99.90
7542;DHT22;3812;50.006;8.230;2022-11-15T09:07:13;12.20;99.90
7542;DHT22;3812;50.006;8.230;2022-11-15T09:09:59;12.30;99.90
7542;DHT22;3812;50.006;8.230;2022-11-15T09:12:46;12.40;99.90
7542;DHT22;3812;50.006;8.230;2022-11-15T09:15:32;12.50;99.90
7542;DHT22;3812;50.006;8.230;2022-11-15T09:18:18;12.40;99.90
7542;DHT22;3812;50.006;8.230;2022-11-15T09:21:06;12.00;99.90
7542;DHT22;3812;50.006;8.230;2022-11-15T09:23:52;11.90;99.90
7542;DHT22;3812;50.006;8.230;2022-11-15T09:26:38;12.10;99.90
7542;DHT22;3812;50.006;8.230;2022-11-15T09:29:25;12.30;99.90
7542;DHT22;3812;50.006;8.230;2022-11-15T09:32:10;12.50;99.90
7542;DHT22;3812;50.006;8.230;2022-11-15T09:34:56;12.60;99.90
7542;DHT22;3812;50.006;8.230;2022-11-15T09:37:42;12.70;99.90
7542;DHT22;3812;50.006;8.230;2022-11-15T09:40:30;12.80;99.90
7542;DHT22;3812;50.006;8.230;2022-11-15T09:43:28;12.80;99.90
7542;DHT22;3812;50.006;8.230;2022-11-15T09:46:20;12.80;99.90
7542;DHT22;3812;50.006;8.230;2022-11-15T09:49:09;12.90;99.90
7542;DHT22;3812;50.006;8.230;2022-11-15T09:51:53;13.00;96.60
7542;DHT22;3812;50.006;8.230;2022-11-15T09:54:27;13.00;96.80
7542;DHT22;3812;50.006;8.230;2022-11-15T09:56:56;13.10;92.70
7542;DHT22;3812;50.006;8.230;2022-11-15T10:00:02;13.10;91.90
7542;DHT22;3812;50.006;8.230;2022-11-15T10:02:50;13.10;91.20
7542;DHT22;3812;50.006;8.230;2022-11-15T10:05:22;13.10;91.00
7542;DHT22;3812;50.006;8.230;2022-11-15T10:07:56;13.10;89.10
7542;DHT22;3812;50.006;8.230;2022-11-15T10:10:29;13.10;90.30
7542;DHT22;3812;50.006;8.230;2022-11-15T10:12:58;13.20;88.40
7542;DHT22;3812;50.006;8.230;2022-11-15T10:15:25;13.30;90.20
7542;DHT22;3812;50.006;8.230;2022-11-15T10:18:12;13.40;86.40
7542;DHT22;3812;50.006;8.230;2022-11-15T10:20:46;13.40;82.70
7542;DHT22;3812;50.006;8.230;2022-11-15T10:23:16;13.50;82.30
7542;DHT22;3812;50.006;8.230;2022-11-15T10:25:44;13.60;85.40
7542;DHT22;3812;50.006;8.230;2022-11-15T10:28:15;13.80;78.80
7542;DHT22;3812;50.006;8.230;2022-11-15T10:30:44;13.90;75.00
7542;DHT22;3812;50.006;8.230;2022-11-15T10:33:23;14.10;66.70
7542;DHT22;3812;50.006;8.230;2022-11-15T10:36:16;14.20;66.30
7542;DHT22;3812;50.006;8.230;2022-11-15T10:38:55;14.30;53.90
7542;DHT22;3812;50.006;8.230;2022-11-15T10:41:31;14.50;54.00
7542;DHT22;3812;50.006;8.230;2022-11-15T10:44:19;14.70;51.20
7542;DHT22;3812;50.006;8.230;2022-11-15T10:46:47;14.90;42.20
7542;DHT22;3812;50.006;8.230;2022-11-15T10:49:19;15.00;38.40
7542;DHT22;3812;50.006;8.230;2022-11-15T10:51:48;15.00;34.40
7542;DHT22;3812;50.006;8.230;2022-11-15T10:54:21;15.20;33.90
7542;DHT22;3812;50.006;8.230;2022-11-15T10:56:51;15.40;26.80
7542;DHT22;3812;50.006;8.230;2022-11-15T10:59:23;15.80;20.50
7542;DHT22;3812;50.006;8.230;2022-11-15T11:01:51;16.30;13.20
7542;DHT22;3812;50.006;8.230;2022-11-15T11:04:20;16.90;1.00
7542;DHT22;3812;50.006;8.230;2022-11-15T11:06:47;17.30;1.00
7542;DHT22;3812;50.006;8.230;2022-11-15T11:09:23;17.10;1.00
7542;DHT22;3812;50.006;8.230;2022-11-15T11:11:54;16.70;1.00
7542;DHT22;3812;50.006;8.230;2022-11-15T11:14:23;16.40;1.00
7542;DHT22;3812;50.006;8.230;2022-11-15T11:16:55;16.20;1.00
7542;DHT22;3812;50.006;8.230;2022-11-15T11:19:50;16.00;1.00
7542;DHT22;3812;50.006;8.230;2022-11-15T11:22:23;15.70;1.00
7542;DHT22;3812;50.006;8.230;2022-11-15T11:25:02;15.40;1.00
7542;DHT22;3812;50.006;8.230;2022-11-15T11:27:42;15.20;1.00
7542;DHT22;3812;50.006;8.230;2022-11-15T11:30:13;15.10;1.00
7542;DHT22;3812;50.006;8.230;2022-11-15T11:32:58;15.00;1.00
7542;DHT22;3812;50.006;8.230;2022-11-15T11:35:32;14.80;1.00
7542;DHT22;3812;50.006;8.230;2022-11-15T11:38:15;14.80;1.00
7542;DHT22;3812;50.006;8.230;2022-11-15T11:40:55;14.60;1.00
7542;DHT22;3812;50.006;8.230;2022-11-15T11:43:32;14.40;1.00
7542;DHT22;3812;50.006;8.230;2022-11-15T11:46:18;14.50;1.00
7542;DHT22;3812;50.006;8.230;2022-11-15T11:48:52;14.50;1.00
7542;DHT22;3812;50.006;8.230;2022-11-15T11:51:28;14.60;1.00
7542;DHT22;3812;50.006;8.230;2022-11-15T11:54:01;14.80;1.00
7542;DHT22;3812;50.006;8.230;2022-11-15T11:56:33;15.00;1.00
7542;DHT22;3812;50.006;8.230;2022-11-15T11:59:05;15.50;1.00
7542;DHT22;3812;50.006;8.230;2022-11-15T12:01:37;15.90;1.00
7542;DHT22;3812;50.006;8.230;2022-11-15T12:04:11;15.90;1.00
7542;DHT22;3812;50.006;8.230;2022-11-15T12:06:48;16.10;1.00
7542;DHT22;3812;50.006;8.230;2022-11-15T12:09:19;16.20;1.00
7542;DHT22;3812;50.006;8.230;2022-11-15T12:11:52;16.20;1.00
7542;DHT22;3812;50.006;8.230;2022-11-15T12:14:27;15.90;1.00
7542;DHT22;3812;50.006;8.230;2022-11-15T12:16:57;15.60;1.00
7542;DHT22;3812;50.006;8.230;2022-11-15T12:19:25;15.40;1.00
7542;DHT22;3812;50.006;8.230;2022-11-15T12:22:00;15.20;1.00
7542;DHT22;3812;50.006;8.230;2022-11-15T12:24:32;15.10;1.00
7542;DHT22;3812;50.006;8.230;2022-11-15T12:27:03;15.00;1.00
7542;DHT22;3812;50.006;8.230;2022-11-15T12:29:36;15.00;1.00
7542;DHT22;3812;50.006;8.230;2022-11-15T12:32:05;15.00;1.00
7542;DHT22;3812;50.006;8.230;2022-11-15T12:34:42;14.80;1.00
7542;DHT22;3812;50.006;8.230;2022-11-15T12:40:30;14.60;1.00
7542;DHT22;3812;50.006;8.230;2022-11-15T12:43:04;14.70;1.00
7542;DHT22;3812;50.006;8.230;2022-11-15T12:45:33;14.60;1.00
7542;DHT22;3812;50.006;8.230;2022-11-15T12:51:04;15.00;1.00
7542;DHT22;3812;50.006;8.230;2022-11-15T12:53:32;15.00;1.00
7542;DHT22;3812;50.006;8.230;2022-11-15T12:56:21;15.00;1.00
7542;DHT22;3812;50.006;8.230;2022-11-15T12:58:51;15.00;1.00
7542;DHT22;3812;50.006;8.230;2022-11-15T13:01:52;14.90;1.00
7542;DHT22;3812;50.006;8.230;2022-11-15T13:04:29;14.90;1.00
7542;DHT22;3812;50.006;8.230;2022-11-15T13:06:59;14.90;1.00
7542;DHT22;3812;50.006;8.230;2022-11-15T13:12:59;14.70;1.00
7542;DHT22;3812;50.006;8.230;2022-11-15T13:15:45;14.80;1.00
7542;DHT22;3812;50.006;8.230;2022-11-15T13:18:34;14.90;1.00
7542;DHT22;3812;50.006;8.230;2022-11-15T13:21:04;14.90;1.00
7542;DHT22;3812;50.006;8.230;2022-11-15T13:23:54;14.80;1.00
7542;DHT22;3812;50.006;8.230;2022-11-15T13:26:22;14.80;1.00
7542;DHT22;3812;50.006;8.230;2022-11-15T13:28:52;14.70;1.00
7542;DHT22;3812;50.006;8.230;2022-11-15T13:31:27;14.70;1.00
7542;DHT22;3812;50.006;8.230;2022-11-15T13:33:57;14.70;1.00
7542;DHT22;3812;50.006;8.230;2022-11-15T13:36:28;14.60;1.00
7542;DHT22;3812;50.006;8.230;2022-11-15T13:38:59;14.60;1.00
7542;DHT22;3812;50.006;8.230;2022-11-15T13:41:27;14.40;1.00
7542;DHT22;3812;50.006;8.230;2022-11-15T13:43:57;14.30;1.00
7542;DHT22;3812;50.006;8.230;2022-11-15T13:46:25;14.20;1.00
7542;DHT22;3812;50.006;8.230;2022-11-15T13:48:55;14.20;1.00
7542;DHT22;3812;50.006;8.230;2022-11-15T13:51:29;14.00;1.00
7542;DHT22;3812;50.006;8.230;2022-11-15T13:54:01;13.90;1.00
7542;DHT22;3812;50.006;8.230;2022-11-15T13:56:29;13.90;1.00
7542;DHT22;3812;50.006;8.230;2022-11-15T13:58:59;13.80;1.00
7542;DHT22;3812;50.006;8.230;2022-11-15T14:01:29;13.70;1.00
7542;DHT22;3812;50.006;8.230;2022-11-15T14:04:00;13.60;1.00
7542;DHT22;3812;50.006;8.230;2022-11-15T14:06:29;13.60;1.00
7542;DHT22;3812;50.006;8.230;2022-11-15T14:11:51;13.40;1.00
7542;DHT22;3812;50.006;8.230;2022-11-15T14:14:21;13.40;1.00
7542;DHT22;3812;50.006;8.230;2022-11-15T14:16:51;13.40;1.00
7542;DHT22;3812;50.006;8.230;2022-11-15T14:19:37;13.40;2.70
7542;DHT22;3812;50.006;8.230;2022-11-15T14:22:18;13.40;4.80
7542;DHT22;3812;50.006;8.230;2022-11-15T14:27:29;13.30;5.60
7542;DHT22;3812;50.006;8.230;2022-11-15T14:29:58;13.30;7.60
7542;DHT22;3812;50.006;8.230;2022-11-15T14:32:26;13.30;8.50
7542;DHT22;3812;50.006;8.230;2022-11-15T14:34:56;13.30;10.30
7542;DHT22;3812;50.006;8.230;2022-11-15T14:37:25;13.30;11.60
7542;DHT22;3812;50.006;8.230;2022-11-15T14:39:53;13.20;13.40
7542;DHT22;3812;50.006;8.230;2022-11-15T14:42:21;13.20;14.50
7542;DHT22;3812;50.006;8.230;2022-11-15T14:44:49;13.20;15.10
7542;DHT22;3812;50.006;8.230;2022-11-15T14:47:17;13.10;15.90
7542;DHT22;3812;50.006;8.230;2022-11-15T14:49:45;13.10;16.00
7542;DHT22;3812;50.006;8.230;2022-11-15T14:52:23;13.10;17.30
7542;DHT22;3812;50.006;8.230;2022-11-15T14:54:50;13.20;20.00
7542;DHT22;3812;50.006;8.230;2022-11-15T14:57:17;13.20;20.10
7542;DHT22;3812;50.006;8.230;2022-11-15T14:59:44;13.20;21.40
7542;DHT22;3812;50.006;8.230;2022-11-15T15:02:17;13.10;19.80
7542;DHT22;3812;50.006;8.230;2022-11-15T15:04:45;13.10;22.50
7542;DHT22;3812;50.006;8.230;2022-11-15T15:07:12;13.10;23.90
7542;DHT22;3812;50.006;8.230;2022-11-15T15:09:39;13.10;23.70
7542;DHT22;3812;50.006;8.230;2022-11-15T15:12:14;13.10;23.20
7542;DHT22;3812;50.006;8.230;2022-11-15T15:14:42;13.10;22.00
7542;DHT22;3812;50.006;8.230;2022-11-15T15:17:09;13.10;24.80
7542;DHT22;3812;50.006;8.230;2022-11-15T15:19:38;13.00;27.50
7542;DHT22;3812;50.006;8.230;2022-11-15T15:22:06;13.00;28.70
7542;DHT22;3812;50.006;8.230;2022-11-15T15:24:36;12.90;30.00
7542;DHT22;3812;50.006;8.230;2022-11-15T15:27:03;12.80;34.00
7542;DHT22;3812;50.006;8.230;2022-11-15T15:29:30;12.80;34.80
7542;DHT22;3812;50.006;8.230;2022-11-15T15:31:57;12.70;40.00
7542;DHT22;3812;50.006;8.230;2022-11-15T15:34:24;12.60;49.30
7542;DHT22;3812;50.006;8.230;2022-11-15T15:37:07;12.60;52.10
7542;DHT22;3812;50.006;8.230;2022-11-15T15:39:34;12.50;55.50
7542;DHT22;3812;50.006;8.230;2022-11-15T15:42:01;12.40;57.20
7542;DHT22;3812;50.006;8.230;2022-11-15T15:44:29;12.40;61.00
7542;DHT22;3812;50.006;8.230;2022-11-15T15:46:56;12.40;71.20
7542;DHT22;3812;50.006;8.230;2022-11-15T15:49:23;12.40;73.70
7542;DHT22;3812;50.006;8.230;2022-11-15T15:51:50;12.30;75.00
7542;DHT22;3812;50.006;8.230;2022-11-15T15:54:19;12.30;73.50
7542;DHT22;3812;50.006;8.230;2022-11-15T15:56:46;12.30;74.40
7542;DHT22;3812;50.006;8.230;2022-11-15T15:59:13;12.30;77.50
7542;DHT22;3812;50.006;8.230;2022-11-15T16:01:40;12.20;78.00
7542;DHT22;3812;50.006;8.230;2022-11-15T16:04:07;12.20;83.30
7542;DHT22;3812;50.006;8.230;2022-11-15T16:06:37;12.20;81.60
7542;DHT22;3812;50.006;8.230;2022-11-15T16:09:05;12.20;91.00
7542;DHT22;3812;50.006;8.230;2022-11-15T16:11:33;12.10;91.20
7542;DHT22;3812;50.006;8.230;2022-11-15T16:14:00;12.10;85.50
7542;DHT22;3812;50.006;8.230;2022-11-15T16:16:27;12.10;86.10
7542;DHT22;3812;50.006;8.230;2022-11-15T16:18:54;12.10;82.90
7542;DHT22;3812;50.006;8.230;2022-11-15T16:21:21;12.10;87.90
7542;DHT22;3812;50.006;8.230;2022-11-15T16:23:48;12.10;89.10
7542;DHT22;3812;50.006;8.230;2022-11-15T16:26:21;12.00;90.00
7542;DHT22;3812;50.006;8.230;2022-11-15T16:28:49;12.00;90.10
7542;DHT22;3812;50.006;8.230;2022-11-15T16:31:17;12.00;93.20
7542;DHT22;3812;50.006;8.230;2022-11-15T16:33:46;11.90;92.30
7542;DHT22;3812;50.006;8.230;2022-11-15T16:36:18;11.90;94.60
7542;DHT22;3812;50.006;8.230;2022-11-15T16:38:46;11.90;95.20
7542;DHT22;3812;50.006;8.230;2022-11-15T16:41:13;11.90;96.60
7542;DHT22;3812;50.006;8.230;2022-11-15T16:43:40;11.90;96.60
7542;DHT22;3812;50.006;8.230;2022-11-15T16:46:14;11.80;98.40
7542;DHT22;3812;50.006;8.230;2022-11-15T16:48:42;11.80;97.70
7542;DHT22;3812;50.006;8.230;2022-11-15T16:51:09;11.70;99.90
7542;DHT22;3812;50.006;8.230;2022-11-15T16:53:36;11.70;99.90
7542;DHT22;3812;50.006;8.230;2022-11-15T16:56:04;11.70;99.90
7542;DHT22;3812;50.006;8.230;2022-11-15T16:58:39;11.70;99.90
7542;DHT22;3812;50.006;8.230;2022-11-15T17:01:16;11.70;99.90
7542;DHT22;3812;50.006;8.230;2022-11-15T17:03:44;11.70;99.90
7542;DHT22;3812;50.006;8.230;2022-11-15T17:06:12;11.70;99.90
7542;DHT22;3812;50.006;8.230;2022-11-15T17:08:40;11.70;99.90
7542;DHT22;3812;50.006;8.230;2022-11-15T17:11:08;11.70;99.90
7542;DHT22;3812;50.006;8.230;2022-11-15T17:13:35;11.60;99.90
7542;DHT22;3812;50.006;8.230;2022-11-15T17:16:04;11.60;99.90
7542;DHT22;3812;50.006;8.230;2022-11-15T17:18:34;11.50;99.90
7542;DHT22;3812;50.006;8.230;2022-11-15T17:21:06;11.40;99.90
7542;DHT22;3812;50.006;8.230;2022-11-15T17:23:33;11.40;99.90
7542;DHT22;3812;50.006;8.230;2022-11-15T17:26:01;11.30;99.90
7542;DHT22;3812;50.006;8.230;2022-11-15T17:28:30;11.20;99.90
7542;DHT22;3812;50.006;8.230;2022-11-15T17:30:57;11.10;99.90
7542;DHT22;3812;50.006;8.230;2022-11-15T17:33:25;11.10;99.90
7542;DHT22;3812;50.006;8.230;2022-11-15T17:35:57;11.00;99.90
7542;DHT22;3812;50.006;8.230;2022-11-15T17:38:25;11.00;99.90
7542;DHT22;3812;50.006;8.230;2022-11-15T17:41:00;11.10;99.90
7542;DHT22;3812;50.006;8.230;2022-11-15T17:43:29;11.10;99.90
7542;DHT22;3812;50.006;8.230;2022-11-15T17:45:56;11.20;99.90
7542;DHT22;3812;50.006;8.230;2022-11-15T17:48:23;11.20;99.90
7542;DHT22;3812;50.006;8.230;2022-11-15T17:50:55;11.20;99.90
7542;DHT22;3812;50.006;8.230;2022-11-15T17:53:24;11.30;99.90